Time;durP1;ratioP1;P1;durP2;ratioP2;P2;SDS_P1;SDS_P2;PMS_P1;PMS_P2;Temp;Humidity;BMP_temperature;BMP_pressure;BME280_temperature;BME280_humidity;BME280_pressure;Samples;Min_cycle;Max_cycle;Signal;HPM_P1;HPM_P2
2022/04/24 00:02:17;;;;;;;1.37;1.27;;;;;;;;;;5031881;28;20293;-83
2022/04/24 00:04:45;;;;;;;1.50;1.20;;;;;;;;;;5029102;28;20247;-82
2022/04/24 00:07:12;;;;;;;1.50;1.30;;;;;;;;;;5031334;28;20206;-83
2022/04/24 00:09:40;;;;;;;1.27;1.17;;;;;;;;;;5031333;28;20293;-83
2022/04/24 00:12:15;;;;;;;1.30;1.20;;;;;;;;;;5031468;28;20289;-83
2022/04/24 00:14:42;;;;;;;1.33;0.97;;;;;;;;;;5031077;28;20265;-83
2022/04/24 00:17:10;;;;;;;1.43;1.33;;;;;;;;;;5033828;28;20244;-83
2022/04/24 00:19:38;;;;;;;2.27;1.20;;;;;;;;;;5035119;28;20205;-83
2022/04/24 00:22:08;;;;;;;1.73;1.30;;;;;;;;;;5035236;28;20209;-83
2022/04/24 00:24:35;;;;;;;2.63;1.30;;;;;;;;;;5034863;28;20258;-82
2022/04/24 00:27:02;;;;;;;1.57;1.33;;;;;;;;;;5034991;28;20232;-83
2022/04/24 00:29:44;;;;;;;3.10;1.40;;;;;;;;;;5034930;28;20195;-82
2022/04/24 00:32:11;;;;;;;2.87;1.33;;;;;;;;;;5035194;28;20207;-83
2022/04/24 00:34:38;;;;;;;3.13;2.00;;;;;;;;;;5034979;28;20226;-82
2022/04/24 00:37:08;;;;;;;1.33;1.20;;;;;;;;;;5034946;28;20205;-82
2022/04/24 00:39:41;;;;;;;3.77;1.63;;;;;;;;;;5034726;28;20230;-82
2022/04/24 00:42:10;;;;;;;1.60;1.13;;;;;;;;;;5034659;28;20256;-82
2022/04/24 00:44:44;;;;;;;1.70;1.60;;;;;;;;;;5034944;28;20670;-82
2022/04/24 00:47:13;;;;;;;2.77;1.80;;;;;;;;;;5034778;28;20291;-83
2022/04/24 00:49:41;;;;;;;1.30;1.20;;;;;;;;;;5034584;28;20205;-83
2022/04/24 00:52:09;;;;;;;2.13;1.33;;;;;;;;;;5034481;28;20283;-82
2022/04/24 00:54:42;;;;;;;2.40;1.50;;;;;;;;;;5034409;28;20230;-83
2022/04/24 00:57:10;;;;;;;1.37;1.27;;;;;;;;;;5034661;28;20289;-82
2022/04/24 00:59:38;;;;;;;2.03;1.87;;;;;;;;;;5034139;28;20679;-82
2022/04/24 01:02:10;;;;;;;6.20;4.40;;;;;;;;;;5034577;28;20205;-83
2022/04/24 01:04:40;;;;;;;4.90;4.00;;;;;;;;;;5033941;28;20246;-83
2022/04/24 01:07:08;;;;;;;3.87;2.80;;;;;;;;;;5034498;28;20241;-83
2022/04/24 01:09:38;;;;;;;2.93;2.50;;;;;;;;;;5034432;28;20217;-82
2022/04/24 01:12:07;;;;;;;2.73;2.03;;;;;;;;;;5033961;28;20198;-83
2022/04/24 01:14:34;;;;;;;1.90;1.77;;;;;;;;;;5034065;28;20237;-82
2022/04/24 01:17:03;;;;;;;2.07;1.60;;;;;;;;;;5034172;28;20226;-83
2022/04/24 01:19:32;;;;;;;2.03;1.60;;;;;;;;;;5033821;28;20298;-83
2022/04/24 01:22:00;;;;;;;3.73;1.77;;;;;;;;;;5034444;28;20273;-83
2022/04/24 01:24:29;;;;;;;1.93;1.77;;;;;;;;;;5033853;28;20633;-83
2022/04/24 01:26:56;;;;;;;3.30;1.70;;;;;;;;;;5034037;28;20204;-83
2022/04/24 01:29:24;;;;;;;1.43;1.40;;;;;;;;;;5033276;28;20589;-83
2022/04/24 01:31:51;;;;;;;1.80;1.47;;;;;;;;;;5034220;28;20227;-83
2022/04/24 01:34:20;;;;;;;3.80;1.50;;;;;;;;;;5033735;28;20199;-83
2022/04/24 01:36:47;;;;;;;1.53;1.43;;;;;;;;;;5033644;28;20317;-83
2022/04/24 01:39:17;;;;;;;3.30;1.60;;;;;;;;;;5033791;28;20583;-83
2022/04/24 01:41:44;;;;;;;3.33;1.93;;;;;;;;;;5033667;28;20201;-83
2022/04/24 01:44:11;;;;;;;1.97;1.77;;;;;;;;;;5033530;28;20207;-83
2022/04/24 01:46:39;;;;;;;2.90;1.80;;;;;;;;;;5033637;28;20194;-83
2022/04/24 01:49:06;;;;;;;1.60;1.50;;;;;;;;;;5033538;28;20301;-83
2022/04/24 01:51:33;;;;;;;1.73;1.63;;;;;;;;;;5033611;28;20209;-83
2022/04/24 01:54:00;;;;;;;3.03;1.90;;;;;;;;;;5033377;28;20194;-83
2022/04/24 01:56:29;;;;;;;3.67;1.70;;;;;;;;;;5033394;28;20380;-83
2022/04/24 01:58:59;;;;;;;2.30;2.00;;;;;;;;;;5033154;28;20234;-83
2022/04/24 02:01:27;;;;;;;4.07;2.57;;;;;;;;;;5033383;28;20206;-83
2022/04/24 02:03:54;;;;;;;4.00;1.83;;;;;;;;;;5033074;28;20761;-83
2022/04/24 02:06:21;;;;;;;1.60;1.47;;;;;;;;;;5032928;28;20290;-83
2022/04/24 02:08:48;;;;;;;2.40;2.00;;;;;;;;;;5033122;28;20194;-83
2022/04/24 02:11:16;;;;;;;2.77;1.93;;;;;;;;;;5033438;28;20676;-83
2022/04/24 02:13:45;;;;;;;3.53;2.27;;;;;;;;;;5033091;28;20289;-83
2022/04/24 02:16:12;;;;;;;1.97;1.87;;;;;;;;;;5032784;28;20226;-83
2022/04/24 02:18:39;;;;;;;2.97;1.80;;;;;;;;;;5033108;28;20274;-83
2022/04/24 02:21:11;;;;;;;3.90;1.97;;;;;;;;;;5032986;28;20657;-83
2022/04/24 02:23:38;;;;;;;1.50;1.40;;;;;;;;;;5033294;28;20203;-83
2022/04/24 02:26:09;;;;;;;1.63;1.50;;;;;;;;;;5032490;28;20230;-83
2022/04/24 02:28:36;;;;;;;2.40;1.40;;;;;;;;;;5033215;28;20202;-83
2022/04/24 02:31:05;;;;;;;1.87;1.60;;;;;;;;;;5032984;28;20198;-83
2022/04/24 02:33:32;;;;;;;2.40;1.80;;;;;;;;;;5032807;28;20294;-83
2022/04/24 02:35:59;;;;;;;2.67;1.73;;;;;;;;;;5032822;28;20258;-83
2022/04/24 02:38:26;;;;;;;4.03;2.13;;;;;;;;;;5032513;28;20199;-83
2022/04/24 02:40:54;;;;;;;1.80;1.70;;;;;;;;;;5031535;28;20285;-83
2022/04/24 02:43:21;;;;;;;1.80;1.70;;;;;;;;;;5032959;28;20199;-83
2022/04/24 02:45:48;;;;;;;2.93;2.30;;;;;;;;;;5032145;28;20203;-83
2022/04/24 02:48:17;;;;;;;2.03;1.90;;;;;;;;;;5032865;28;20278;-83
2022/04/24 02:50:44;;;;;;;2.03;1.57;;;;;;;;;;5032325;28;20203;-83
2022/04/24 02:53:11;;;;;;;5.00;2.00;;;;;;;;;;5032797;28;20641;-82
2022/04/24 02:55:39;;;;;;;2.90;1.70;;;;;;;;;;5031862;28;20230;-82
2022/04/24 02:58:06;;;;;;;1.43;1.33;;;;;;;;;;5032423;28;20202;-82
2022/04/24 03:00:43;;;;;;;1.67;1.50;;;;;;;;;;5032346;28;20195;-82
2022/04/24 03:03:11;;;;;;;1.97;1.20;;;;;;;;;;5032169;28;20197;-83
2022/04/24 03:05:39;;;;;;;4.43;1.73;;;;;;;;;;5032108;28;20237;-82
2022/04/24 03:08:08;;;;;;;2.17;1.97;;;;;;;;;;5031822;28;20199;-82
2022/04/24 03:10:35;;;;;;;2.93;2.10;;;;;;;;;;5031999;28;20758;-83
2022/04/24 03:13:03;;;;;;;4.70;1.90;;;;;;;;;;5032178;28;20693;-82
2022/04/24 03:15:30;;;;;;;4.13;1.83;;;;;;;;;;5031524;28;20198;-82
2022/04/24 03:18:00;;;;;;;2.20;2.00;;;;;;;;;;5032021;28;20199;-82
2022/04/24 03:20:30;;;;;;;3.23;1.83;;;;;;;;;;5031882;28;20286;-82
2022/04/24 03:22:59;;;;;;;2.00;1.80;;;;;;;;;;5031725;28;20198;-83
2022/04/24 03:25:26;;;;;;;2.27;2.07;;;;;;;;;;5031643;28;20234;-83
2022/04/24 03:28:00;;;;;;;2.23;1.87;;;;;;;;;;5031898;28;20195;-82
2022/04/24 03:30:27;;;;;;;4.87;1.80;;;;;;;;;;5031592;28;20274;-83
2022/04/24 03:32:54;;;;;;;4.13;1.70;;;;;;;;;;5031870;28;20709;-82
2022/04/24 03:35:22;;;;;;;1.70;1.60;;;;;;;;;;5031849;28;20224;-82
2022/04/24 03:37:49;;;;;;;2.00;1.80;;;;;;;;;;5031722;28;20221;-83
2022/04/24 03:40:19;;;;;;;1.50;1.40;;;;;;;;;;5031224;28;20198;-83
2022/04/24 03:42:47;;;;;;;3.27;1.63;;;;;;;;;;5031849;28;20321;-82
2022/04/24 03:45:14;;;;;;;2.07;1.90;;;;;;;;;;5031906;28;20555;-82
2022/04/24 03:47:41;;;;;;;3.47;1.67;;;;;;;;;;5031380;28;20667;-82
2022/04/24 03:50:09;;;;;;;3.53;2.47;;;;;;;;;;5031343;28;20203;-82
2022/04/24 03:52:37;;;;;;;4.20;1.97;;;;;;;;;;5034962;28;20230;-82
2022/04/24 03:55:08;;;;;;;3.07;1.60;;;;;;;;;;5035573;28;20198;-82
2022/04/24 03:57:37;;;;;;;2.47;1.60;;;;;;;;;;5035987;28;20258;-82
2022/04/24 04:00:07;;;;;;;1.70;1.60;;;;;;;;;;5035477;28;20198;-82
2022/04/24 04:02:43;;;;;;;4.40;1.93;;;;;;;;;;5035480;28;20238;-83
2022/04/24 04:05:10;;;;;;;1.87;1.67;;;;;;;;;;5035281;28;20276;-83
2022/04/24 04:07:40;;;;;;;2.83;1.73;;;;;;;;;;5035501;28;20198;-82
2022/04/24 04:10:08;;;;;;;4.33;2.23;;;;;;;;;;5035461;28;20194;-83
2022/04/24 04:12:37;;;;;;;1.93;1.80;;;;;;;;;;5035285;28;20194;-83
2022/04/24 04:15:08;;;;;;;5.03;2.70;;;;;;;;;;5035171;28;20206;-83
2022/04/24 04:17:38;;;;;;;4.43;3.83;;;;;;;;;;5035212;28;20222;-83
2022/04/24 04:20:11;;;;;;;7.47;4.90;;;;;;;;;;5034908;28;20237;-83
2022/04/24 04:22:51;;;;;;;4.63;3.93;;;;;;;;;;5035609;28;20187;-83
2022/04/24 04:25:20;;;;;;;3.80;3.40;;;;;;;;;;5035332;28;20198;-83
2022/04/24 04:27:49;;;;;;;6.33;5.73;;;;;;;;;;5035027;28;20290;-83
2022/04/24 04:30:17;;;;;;;5.87;4.33;;;;;;;;;;5034969;28;20210;-83
2022/04/24 04:32:44;;;;;;;6.00;4.17;;;;;;;;;;5035358;28;20199;-85
2022/04/24 04:35:12;;;;;;;4.63;4.13;;;;;;;;;;5034883;28;20293;-85
2022/04/24 04:37:52;;;;;;;6.60;4.77;;;;;;;;;;5034946;28;20650;-83
2022/04/24 04:40:20;;;;;;;4.27;3.87;;;;;;;;;;5034597;28;20230;-82
2022/04/24 04:42:49;;;;;;;5.07;3.87;;;;;;;;;;5035240;28;20205;-83
2022/04/24 04:45:17;;;;;;;4.60;2.57;;;;;;;;;;5034698;28;20198;-82
2022/04/24 04:47:48;;;;;;;3.00;1.80;;;;;;;;;;5034826;28;20663;-83
2022/04/24 04:50:15;;;;;;;1.83;1.73;;;;;;;;;;5034856;28;20631;-82
2022/04/24 04:52:42;;;;;;;2.00;1.80;;;;;;;;;;5034586;28;20205;-83
2022/04/24 04:55:10;;;;;;;2.73;1.80;;;;;;;;;;5034506;28;20210;-83
2022/04/24 04:57:38;;;;;;;1.70;1.50;;;;;;;;;;5034564;28;20631;-83
2022/04/24 05:00:07;;;;;;;3.27;2.17;;;;;;;;;;5034591;28;20640;-82
2022/04/24 05:02:38;;;;;;;3.73;2.40;;;;;;;;;;5033873;28;20690;-83
2022/04/24 05:05:07;;;;;;;6.03;5.43;;;;;;;;;;5034109;28;20687;-83
2022/04/24 05:07:40;;;;;;;11.03;9.90;;;;;;;;;;5034830;28;20198;-83
2022/04/24 05:10:09;;;;;;;14.07;9.90;;;;;;;;;;5034017;28;20268;-83
2022/04/24 05:12:36;;;;;;;8.27;7.30;;;;;;;;;;5034363;28;20201;-83
2022/04/24 05:15:07;;;;;;;7.30;6.60;;;;;;;;;;5034076;28;20754;-83
2022/04/24 05:17:37;;;;;;;6.43;5.83;;;;;;;;;;5034246;28;20721;-83
2022/04/24 05:20:06;;;;;;;5.80;5.30;;;;;;;;;;5034100;28;20263;-83
2022/04/24 05:22:33;;;;;;;4.43;3.77;;;;;;;;;;5033926;28;20195;-83
2022/04/24 05:25:00;;;;;;;6.60;4.00;;;;;;;;;;5034144;28;20636;-82
2022/04/24 05:27:33;;;;;;;5.13;3.47;;;;;;;;;;5034078;28;20679;-83
2022/04/24 05:30:01;;;;;;;2.53;2.33;;;;;;;;;;5033904;28;20643;-82
2022/04/24 05:32:29;;;;;;;2.30;2.20;;;;;;;;;;5034012;28;20293;-83
2022/04/24 05:34:57;;;;;;;2.57;2.37;;;;;;;;;;5033715;28;20634;-83
2022/04/24 05:37:24;;;;;;;2.83;2.63;;;;;;;;;;5034105;28;20313;-83
2022/04/24 05:40:00;;;;;;;6.20;2.60;;;;;;;;;;5033375;28;20289;-83
2022/04/24 05:42:33;;;;;;;2.17;2.07;;;;;;;;;;5033788;28;20212;-83
2022/04/24 05:45:01;;;;;;;2.33;2.13;;;;;;;;;;5033710;28;20639;-83
2022/04/24 05:47:30;;;;;;;2.00;1.80;;;;;;;;;;5034014;28;20253;-83
2022/04/24 05:49:57;;;;;;;2.53;2.33;;;;;;;;;;5033119;28;20199;-83
2022/04/24 05:52:25;;;;;;;26.07;18.67;;;;;;;;;;5033704;28;20289;-83
2022/04/24 05:55:01;;;;;;;15.90;11.00;;;;;;;;;;5033265;28;20289;-83
2022/04/24 05:57:28;;;;;;;10.27;7.33;;;;;;;;;;5033382;28;20226;-83
2022/04/24 05:59:59;;;;;;;21.80;19.50;;;;;;;;;;5033035;28;20585;-83
2022/04/24 06:02:30;;;;;;;17.90;16.17;;;;;;;;;;5033388;28;20202;-83
2022/04/24 06:04:58;;;;;;;10.30;9.30;;;;;;;;;;5033035;28;20321;-83
2022/04/24 06:07:25;;;;;;;8.77;7.57;;;;;;;;;;5033011;28;20211;-83
2022/04/24 06:09:53;;;;;;;13.37;10.83;;;;;;;;;;5015952;28;20199;-83
2022/04/24 06:12:20;;;;;;;29.77;21.30;;;;;;;;;;5033513;28;20282;-84
2022/04/24 06:14:47;;;;;;;51.70;30.00;;;;;;;;;;5032597;28;20257;-84
2022/04/24 06:17:17;;;;;;;10.47;6.67;;;;;;;;;;5033085;28;20680;-83
2022/04/24 06:19:46;;;;;;;12.30;9.17;;;;;;;;;;5033195;28;20651;-84
2022/04/24 06:22:13;;;;;;;84.07;38.00;;;;;;;;;;5032949;28;20587;-84
2022/04/24 06:24:41;;;;;;;19.57;11.07;;;;;;;;;;5032693;28;20203;-84
2022/04/24 06:27:08;;;;;;;5.97;4.37;;;;;;;;;;5032766;28;20286;-84
2022/04/24 06:29:35;;;;;;;5.03;2.80;;;;;;;;;;5032678;28;20751;-84
2022/04/24 06:32:04;;;;;;;3.60;2.90;;;;;;;;;;5032840;28;20296;-83
2022/04/24 06:34:43;;;;;;;9.67;6.07;;;;;;;;;;5032592;28;20239;-83
2022/04/24 06:37:12;;;;;;;8.83;5.93;;;;;;;;;;5032229;28;20233;-84
2022/04/24 06:39:42;;;;;;;5.93;4.27;;;;;;;;;;5032783;28;20201;-84
2022/04/24 06:42:10;;;;;;;7.67;3.40;;;;;;;;;;5032621;28;20206;-84
2022/04/24 06:44:44;;;;;;;5.43;3.10;;;;;;;;;;5032406;28;20281;-84
2022/04/24 06:47:11;;;;;;;5.37;3.00;;;;;;;;;;5032363;28;20791;-84
2022/04/24 06:49:38;;;;;;;8.53;3.63;;;;;;;;;;5032383;28;20260;-84
2022/04/24 06:52:06;;;;;;;7.30;3.53;;;;;;;;;;5032371;28;20281;-84
2022/04/24 06:54:35;;;;;;;4.73;3.40;;;;;;;;;;5032080;28;20238;-84
2022/04/24 06:57:02;;;;;;;6.50;2.63;;;;;;;;;;5032349;28;20230;-84
2022/04/24 06:59:29;;;;;;;5.70;2.90;;;;;;;;;;5032468;28;20285;-84
2022/04/24 07:01:59;;;;;;;6.53;2.87;;;;;;;;;;5032103;28;20206;-84
2022/04/24 07:04:27;;;;;;;5.37;3.00;;;;;;;;;;5031548;28;20230;-84
2022/04/24 07:07:04;;;;;;;4.60;2.60;;;;;;;;;;5032127;28;20205;-84
2022/04/24 07:09:31;;;;;;;11.53;3.07;;;;;;;;;;5032052;28;20252;-83
2022/04/24 07:12:03;;;;;;;7.63;2.83;;;;;;;;;;5032185;28;20202;-84
2022/04/24 07:14:30;;;;;;;5.17;4.33;;;;;;;;;;5031778;28;20238;-83
2022/04/24 07:16:57;;;;;;;9.40;3.90;;;;;;;;;;5032009;28;20258;-84
2022/04/24 07:19:24;;;;;;;8.37;4.07;;;;;;;;;;5031868;28;20203;-84
2022/04/24 07:21:51;;;;;;;6.73;3.47;;;;;;;;;;5031770;28;20268;-84
2022/04/24 07:24:19;;;;;;;6.23;3.20;;;;;;;;;;5031862;28;20675;-84
2022/04/24 07:26:49;;;;;;;6.43;3.03;;;;;;;;;;5031382;28;20203;-84
2022/04/24 07:29:17;;;;;;;7.97;3.17;;;;;;;;;;5031516;28;20210;-84
2022/04/24 07:31:44;;;;;;;9.40;3.47;;;;;;;;;;5031804;28;20205;-84
2022/04/24 07:34:12;;;;;;;6.87;3.03;;;;;;;;;;5031657;28;20289;-84
2022/04/24 07:36:39;;;;;;;6.70;3.17;;;;;;;;;;5031727;28;20198;-84
2022/04/24 07:39:06;;;;;;;8.57;3.50;;;;;;;;;;5031358;28;20203;-84
2022/04/24 07:41:34;;;;;;;7.93;3.50;;;;;;;;;;5031620;28;20198;-84
2022/04/24 07:44:08;;;;;;;16.57;8.00;;;;;;;;;;5031574;28;20209;-84
2022/04/24 07:46:40;;;;;;;8.63;3.53;;;;;;;;;;5031704;28;20199;-84
2022/04/24 07:49:07;;;;;;;7.13;3.50;;;;;;;;;;5031400;28;20714;-84
2022/04/24 07:51:37;;;;;;;6.87;3.77;;;;;;;;;;5031699;28;20195;-84
2022/04/24 07:54:07;;;;;;;7.03;2.97;;;;;;;;;;5031451;28;20199;-84
2022/04/24 07:56:34;;;;;;;6.73;3.23;;;;;;;;;;5031471;28;20203;-84
2022/04/24 07:59:02;;;;;;;4.13;2.87;;;;;;;;;;5031677;28;20360;-84
2022/04/24 08:01:29;;;;;;;6.13;3.90;;;;;;;;;;5031883;28;20234;-84
2022/04/24 08:04:10;;;;;;;7.43;3.00;;;;;;;;;;5031175;28;20246;-83
2022/04/24 08:06:40;;;;;;;32.40;23.83;;;;;;;;;;5031682;28;20228;-84
2022/04/24 08:09:10;;;;;;;48.30;32.23;;;;;;;;;;5030924;28;20612;-84
2022/04/24 08:11:37;;;;;;;21.80;11.67;;;;;;;;;;5031813;28;20612;-84
2022/04/24 08:14:14;;;;;;;11.70;4.33;;;;;;;;;;5031024;28;20209;-84
2022/04/24 08:16:44;;;;;;;9.43;4.30;;;;;;;;;;5031508;28;20281;-84
2022/04/24 08:19:13;;;;;;;12.20;7.73;;;;;;;;;;5031248;28;20745;-84
2022/04/24 08:21:40;;;;;;;7.17;4.57;;;;;;;;;;5031536;28;20238;-84
2022/04/24 08:24:07;;;;;;;7.60;2.97;;;;;;;;;;5031314;28;20227;-83
2022/04/24 08:26:36;;;;;;;10.13;4.10;;;;;;;;;;5031432;28;20252;-84
2022/04/24 08:29:03;;;;;;;10.73;4.67;;;;;;;;;;5031114;28;20741;-85
2022/04/24 08:31:30;;;;;;;12.00;6.03;;;;;;;;;;5031214;28;20234;-84
2022/04/24 08:33:57;;;;;;;6.40;5.03;;;;;;;;;;5031214;28;20230;-83
2022/04/24 08:36:29;;;;;;;7.20;4.67;;;;;;;;;;5031067;28;20261;-84
2022/04/24 08:38:56;;;;;;;8.97;4.30;;;;;;;;;;5034510;28;20313;-85
2022/04/24 08:41:25;;;;;;;12.83;6.70;;;;;;;;;;5035207;28;20544;-84
2022/04/24 08:43:53;;;;;;;13.93;7.00;;;;;;;;;;5034881;28;20674;-84
2022/04/24 08:46:20;;;;;;;14.77;6.50;;;;;;;;;;5034803;28;20202;-84
2022/04/24 08:48:48;;;;;;;19.03;8.70;;;;;;;;;;5034766;28;20205;-84
2022/04/24 08:51:16;;;;;;;12.23;6.77;;;;;;;;;;5034604;28;20195;-84
2022/04/24 08:53:48;;;;;;;15.33;8.60;;;;;;;;;;5034474;28;20693;-83
2022/04/24 08:56:15;;;;;;;8.13;5.00;;;;;;;;;;5034368;28;20668;-84
2022/04/24 08:58:42;;;;;;;11.03;5.97;;;;;;;;;;5034757;28;20280;-84
2022/04/24 09:01:10;;;;;;;8.10;3.40;;;;;;;;;;5034462;28;20201;-84
2022/04/24 09:03:43;;;;;;;7.23;4.33;;;;;;;;;;5034858;28;20615;-84
2022/04/24 09:06:21;;;;;;;8.03;3.20;;;;;;;;;;5034317;28;20175;-84
2022/04/24 09:08:50;;;;;;;6.40;3.57;;;;;;;;;;5034682;28;20241;-84
2022/04/24 09:11:23;;;;;;;12.50;9.23;;;;;;;;;;5034392;28;20723;-84
2022/04/24 09:17:01;;;;;;;9.63;8.63;;;;;;;;;;5034221;28;20178;-84
2022/04/24 09:19:31;;;;;;;6.47;3.67;;;;;;;;;;5033741;28;20413;-84
2022/04/24 09:22:04;;;;;;;10.27;4.80;;;;;;;;;;5034124;28;20203;-84
2022/04/24 09:24:42;;;;;;;5.90;3.13;;;;;;;;;;5033964;28;20730;-84
2022/04/24 09:27:10;;;;;;;9.70;2.90;;;;;;;;;;5034048;28;20613;-84
2022/04/24 09:29:41;;;;;;;6.50;3.33;;;;;;;;;;5033787;28;20201;-83
2022/04/24 09:32:21;;;;;;;10.13;3.53;;;;;;;;;;5034249;28;20211;-84
2022/04/24 09:34:48;;;;;;;8.00;3.27;;;;;;;;;;5033499;28;20256;-84
2022/04/24 09:37:19;;;;;;;11.33;2.90;;;;;;;;;;5033829;28;20286;-84
2022/04/24 09:39:48;;;;;;;8.20;3.00;;;;;;;;;;5033513;28;20294;-84
2022/04/24 09:42:17;;;;;;;8.93;4.97;;;;;;;;;;5033575;28;20686;-83
2022/04/24 09:44:46;;;;;;;14.53;6.97;;;;;;;;;;5033552;28;20202;-83
2022/04/24 09:47:13;;;;;;;40.93;29.07;;;;;;;;;;5033677;28;20206;-84
2022/04/24 09:49:46;;;;;;;99.37;75.20;;;;;;;;;;5032942;28;20241;-84
2022/04/24 09:52:17;;;;;;;53.57;31.30;;;;;;;;;;5033621;28;20194;-84
2022/04/24 09:54:49;;;;;;;7.73;4.03;;;;;;;;;;5033346;28;20289;-84
2022/04/24 09:57:27;;;;;;;15.90;10.97;;;;;;;;;;5033860;28;20183;-84
2022/04/24 09:59:57;;;;;;;6.67;3.10;;;;;;;;;;5033300;28;20210;-84
2022/04/24 10:02:43;;;;;;;8.70;4.80;;;;;;;;;;5033672;28;20205;-84
2022/04/24 10:05:11;;;;;;;12.07;5.03;;;;;;;;;;5032508;28;20242;-84
2022/04/24 10:07:45;;;;;;;10.27;6.03;;;;;;;;;;5033688;28;20551;-84
2022/04/24 10:10:16;;;;;;;7.50;4.63;;;;;;;;;;5032803;28;20245;-84
2022/04/24 10:12:48;;;;;;;13.30;4.47;;;;;;;;;;5033194;28;20210;-84
2022/04/24 10:15:23;;;;;;;10.90;3.90;;;;;;;;;;5033345;28;20585;-84
2022/04/24 10:18:18;;;;;;;6.40;3.30;;;;;;;;;;5032918;28;20230;-84
2022/04/24 10:21:06;;;;;;;10.73;4.93;;;;;;;;;;5032943;28;20270;-84
2022/04/24 10:23:35;;;;;;;9.97;3.90;;;;;;;;;;5033095;28;20191;-84
2022/04/24 10:26:05;;;;;;;10.37;4.07;;;;;;;;;;5033105;28;20207;-84
2022/04/24 10:28:39;;;;;;;11.67;3.80;;;;;;;;;;5032905;28;20217;-84
2022/04/24 10:31:12;;;;;;;12.23;3.50;;;;;;;;;;5032626;28;20277;-84
2022/04/24 10:33:40;;;;;;;12.60;3.57;;;;;;;;;;5032794;28;20755;-84
2022/04/24 10:36:14;;;;;;;7.70;3.83;;;;;;;;;;5032604;28;20195;-84
2022/04/24 10:38:48;;;;;;;12.47;4.37;;;;;;;;;;5032482;28;20242;-84
2022/04/24 10:41:18;;;;;;;6.37;4.17;;;;;;;;;;5032676;28;20186;-84
2022/04/24 10:43:47;;;;;;;9.23;4.07;;;;;;;;;;5032739;28;20658;-84
2022/04/24 10:46:18;;;;;;;11.70;3.73;;;;;;;;;;5032500;28;20234;-84
2022/04/24 10:48:46;;;;;;;10.73;3.70;;;;;;;;;;5032518;28;20222;-84
2022/04/24 10:51:28;;;;;;;14.10;4.17;;;;;;;;;;5032292;28;20285;-84
2022/04/24 10:54:08;;;;;;;11.20;3.53;;;;;;;;;;5032362;28;20191;-84
2022/04/24 10:56:38;;;;;;;16.23;3.50;;;;;;;;;;5032249;28;20186;-84
2022/04/24 10:59:13;;;;;;;8.13;4.17;;;;;;;;;;5032434;28;20300;-84
2022/04/24 11:01:48;;;;;;;14.23;4.13;;;;;;;;;;5031438;28;20206;-84
2022/04/24 11:04:17;;;;;;;9.40;3.53;;;;;;;;;;5030036;28;20238;-84
2022/04/24 11:06:54;;;;;;;9.17;4.00;;;;;;;;;;5032173;28;20260;-84
2022/04/24 11:09:21;;;;;;;9.50;4.03;;;;;;;;;;5032091;28;20206;-84
2022/04/24 11:11:51;;;;;;;14.17;4.10;;;;;;;;;;5031913;28;20293;-84
2022/04/24 11:14:22;;;;;;;6.37;3.33;;;;;;;;;;5032021;28;20198;-84
2022/04/24 11:16:51;;;;;;;11.90;3.50;;;;;;;;;;5032428;28;20237;-85
2022/04/24 11:19:26;;;;;;;12.63;4.43;;;;;;;;;;5031668;28;20230;-84
2022/04/24 11:21:57;;;;;;;6.63;4.33;;;;;;;;;;5031813;28;20202;-84
2022/04/24 11:24:26;;;;;;;10.10;4.30;;;;;;;;;;5031996;28;20567;-84
2022/04/24 11:27:15;;;;;;;10.17;4.27;;;;;;;;;;5031989;28;20686;-84
2022/04/24 11:29:44;;;;;;;8.50;4.33;;;;;;;;;;5031956;28;20281;-84
2022/04/24 11:32:13;;;;;;;6.77;3.83;;;;;;;;;;5031488;28;20289;-84
2022/04/24 11:34:41;;;;;;;7.57;3.90;;;;;;;;;;5031598;28;20198;-85
2022/04/24 11:37:09;;;;;;;8.07;3.77;;;;;;;;;;5032023;28;20203;-84
2022/04/24 11:39:39;;;;;;;9.10;3.50;;;;;;;;;;5031506;28;20311;-84
2022/04/24 11:42:06;;;;;;;11.87;5.03;;;;;;;;;;5031536;28;20202;-85
2022/04/24 11:50:24;;;;;;;6.67;3.47;;;;;;;;;;5031403;28;20206;-85
2022/04/24 11:52:54;;;;;;;6.30;3.63;;;;;;;;;;5031696;28;20297;-85
2022/04/24 11:56:01;;;;;;;10.17;3.77;;;;;;;;;;5031571;28;20245;-85
2022/04/24 11:58:13;;;;;;;7.97;3.20;;;;;;;;;;5025233;28;20207;-85
2022/04/24 12:00:48;;;;;;;7.83;3.40;;;;;;;;;;5031557;28;20203;-85
2022/04/24 12:03:15;;;;;;;10.63;3.93;;;;;;;;;;5038587;28;20255;-85
2022/04/24 12:05:46;;;;;;;7.17;3.10;;;;;;;;;;5041956;28;20222;-84
2022/04/24 12:08:13;;;;;;;7.67;3.40;;;;;;;;;;5048793;28;20647;-84
2022/04/24 12:10:45;;;;;;;9.27;4.20;;;;;;;;;;5045922;28;20774;-85
2022/04/24 12:13:22;;;;;;;10.50;3.77;;;;;;;;;;5045648;28;20219;-85
2022/04/24 12:15:54;;;;;;;7.00;3.57;;;;;;;;;;5052826;28;20200;-89
2022/04/24 12:18:22;;;;;;;8.03;3.83;;;;;;;;;;5053189;28;20651;-86
2022/04/24 12:20:50;;;;;;;8.23;3.77;;;;;;;;;;5054261;28;20194;-85
2022/04/24 12:23:18;;;;;;;7.57;4.03;;;;;;;;;;5053624;28;20233;-86
2022/04/24 12:25:50;;;;;;;9.10;3.77;;;;;;;;;;5053660;28;20671;-85
2022/04/24 12:28:35;;;;;;;5.83;3.37;;;;;;;;;;5050851;28;20202;-85
2022/04/24 12:31:05;;;;;;;8.63;3.80;;;;;;;;;;5049320;28;20193;-86
2022/04/24 12:33:33;;;;;;;13.40;3.33;;;;;;;;;;5029829;28;20652;-86
2022/04/24 12:36:13;;;;;;;7.33;3.53;;;;;;;;;;5046752;28;20202;-85
2022/04/24 12:38:41;;;;;;;4.97;3.27;;;;;;;;;;5054367;28;20719;-85
2022/04/24 12:41:12;;;;;;;5.77;3.40;;;;;;;;;;5053930;28;20285;-85
2022/04/24 12:43:39;;;;;;;5.87;3.50;;;;;;;;;;5054403;28;20289;-86
2022/04/24 12:46:14;;;;;;;6.83;3.50;;;;;;;;;;5053919;28;20288;-86
2022/04/24 12:48:49;;;;;;;8.13;2.97;;;;;;;;;;5054249;28;20193;-86
2022/04/24 12:51:24;;;;;;;11.43;3.50;;;;;;;;;;5053478;28;20194;-86
2022/04/24 12:53:59;;;;;;;9.10;3.57;;;;;;;;;;5054261;28;20200;-86
2022/04/24 12:56:26;;;;;;;6.17;3.53;;;;;;;;;;5054428;28;20296;-86
2022/04/24 12:58:58;;;;;;;6.27;3.47;;;;;;;;;;5054345;28;20221;-86
2022/04/24 13:01:33;;;;;;;13.87;3.30;;;;;;;;;;5054031;28;20201;-86
2022/04/24 13:04:00;;;;;;;11.67;3.97;;;;;;;;;;5054272;28;20291;-86
2022/04/24 13:06:28;;;;;;;8.10;3.23;;;;;;;;;;5054604;28;20627;-85
2022/04/24 13:08:58;;;;;;;13.23;4.00;;;;;;;;;;5054077;28;20194;-86
2022/04/24 13:11:26;;;;;;;7.97;3.57;;;;;;;;;;5054092;28;20228;-86
2022/04/24 13:13:59;;;;;;;8.97;3.00;;;;;;;;;;5054275;28;20233;-85
2022/04/24 13:19:19;;;;;;;10.43;3.97;;;;;;;;;;5054196;28;20279;-86
2022/04/24 13:21:46;;;;;;;8.33;3.23;;;;;;;;;;5053951;28;20292;-86
2022/04/24 13:24:16;;;;;;;12.70;3.67;;;;;;;;;;5053287;28;20216;-86
2022/04/24 13:26:43;;;;;;;7.70;3.50;;;;;;;;;;5053649;28;20198;-86
2022/04/24 13:29:11;;;;;;;4.53;3.30;;;;;;;;;;5053920;28;20255;-86
2022/04/24 13:31:47;;;;;;;9.87;3.30;;;;;;;;;;5053820;28;20201;-86
2022/04/24 13:34:16;;;;;;;6.73;2.83;;;;;;;;;;5053800;28;20182;-86
2022/04/24 13:39:49;;;;;;;10.07;3.47;;;;;;;;;;5053732;28;20744;-86
2022/04/24 13:42:17;;;;;;;6.73;3.17;;;;;;;;;;5053749;28;20293;-86
2022/04/24 13:44:47;;;;;;;8.43;3.27;;;;;;;;;;5053745;28;20197;-86
2022/04/24 13:47:15;;;;;;;7.90;3.10;;;;;;;;;;5053700;28;20202;-85
2022/04/24 13:49:49;;;;;;;10.73;3.33;;;;;;;;;;5053426;28;20674;-86
2022/04/24 13:52:18;;;;;;;8.47;3.00;;;;;;;;;;5053399;28;20259;-86
2022/04/24 13:54:48;;;;;;;6.03;3.07;;;;;;;;;;5053519;28;20280;-86
2022/04/24 13:57:16;;;;;;;10.77;3.13;;;;;;;;;;5053733;28;20744;-86
2022/04/24 13:59:46;;;;;;;11.37;3.33;;;;;;;;;;5053365;28;20728;-86
2022/04/24 14:02:18;;;;;;;9.17;4.00;;;;;;;;;;5053354;28;20186;-86
2022/04/24 14:04:46;;;;;;;6.97;2.63;;;;;;;;;;5053033;28;20268;-86
2022/04/24 14:07:17;;;;;;;10.77;3.47;;;;;;;;;;5053683;28;20294;-86
2022/04/24 14:09:47;;;;;;;9.27;3.53;;;;;;;;;;5053209;28;20271;-86
2022/04/24 14:12:15;;;;;;;11.47;4.00;;;;;;;;;;5053315;28;20641;-86
2022/04/24 14:14:48;;;;;;;10.40;3.93;;;;;;;;;;5053066;28;20296;-86
2022/04/24 14:17:19;;;;;;;9.97;3.23;;;;;;;;;;5053155;28;20201;-86
2022/04/24 14:19:46;;;;;;;6.93;3.07;;;;;;;;;;5052875;28;20225;-86
2022/04/24 14:22:18;;;;;;;14.57;3.70;;;;;;;;;;5053359;28;20225;-86
2022/04/24 14:24:48;;;;;;;9.97;3.23;;;;;;;;;;5053061;28;20197;-86
2022/04/24 14:27:19;;;;;;;5.40;3.10;;;;;;;;;;5052998;28;20659;-86
2022/04/24 14:29:49;;;;;;;10.93;3.47;;;;;;;;;;5053055;28;20643;-86
2022/04/24 14:32:16;;;;;;;19.27;4.13;;;;;;;;;;5052930;28;20601;-86
2022/04/24 14:34:44;;;;;;;5.47;3.20;;;;;;;;;;5052405;28;20194;-85
2022/04/24 14:37:22;;;;;;;5.40;3.20;;;;;;;;;;5052789;28;20190;-86
2022/04/24 14:39:59;;;;;;;8.27;2.97;;;;;;;;;;5052432;28;20321;-86
2022/04/24 14:42:27;;;;;;;7.03;3.47;;;;;;;;;;5052840;28;20205;-86
2022/04/24 14:44:57;;;;;;;10.50;3.80;;;;;;;;;;5052700;28;20638;-86
2022/04/24 14:55:49;;;;;;;14.03;7.50;;;;;;;;;;4977639;28;20271;-86
2022/04/24 14:58:24;;;;;;;9.57;4.97;;;;;;;;;;5052425;28;20228;-86
2022/04/24 15:00:52;;;;;;;17.83;5.80;;;;;;;;;;5051928;28;20228;-87
2022/04/24 15:03:22;;;;;;;7.73;4.87;;;;;;;;;;5052213;28;20190;-87
2022/04/24 15:05:58;;;;;;;7.63;3.50;;;;;;;;;;5030057;28;20199;-86
2022/04/24 15:08:27;;;;;;;16.67;4.07;;;;;;;;;;5032317;28;20291;-86
2022/04/24 15:10:57;;;;;;;10.93;4.77;;;;;;;;;;5032063;28;20229;-86
2022/04/24 15:13:32;;;;;;;13.87;5.57;;;;;;;;;;5032285;28;20290;-86
2022/04/24 15:16:09;;;;;;;8.80;3.90;;;;;;;;;;5032366;28;20646;-86
2022/04/24 15:18:39;;;;;;;10.10;3.80;;;;;;;;;;5032071;28;20217;-86